Aeroporto :
LOGIN :

Iscrizione | Disclaimer

   EN    FR    IT 

 










Sommario :    VFR   VFR Marginale   IFR   IFR Intensivo   IFR Molto Intensivo
Visibilità : 
Base nubi : 
>= 8 km
>= 3000ft
5 / 8 km
1000 / 3000 ft
1500m / 5 km
500 / 1000 ft
800 / 1500m
200 / 500 ft
< 800m
< 200 ft
Simboli :   Temporali  Nebbia  Neve Forte  Precipitazioni Forti  Vento > 20 kt
SIGMETs :   Varie  Temporali  Ghiacco  Turbolenza  Onda orograficha  Ceneri Vulcaniche







- Altitudine del aeroporto : 1367 ft
- Codice IATA : FDH


EDNY - Friedrichshafen

ULTIMO METAR :
  • 201520Z 20004KT 6000 NSC 15/11 Q1027

METARs OBSOLETI :
  • 201450Z 22004KT 180V240 4500 BR FEW015 15/11 Q1027
  • 201420Z 22006KT 4500 BR FEW015 15/11 Q1027
  • 201350Z 22007KT 4000 BR FEW015 15/11 Q1027
  • 201320Z 22006KT 4000 BR FEW015 15/11 Q1028
  • 201250Z VRB02KT 4500 BR FEW012 16/13 Q1028

TAF TAF EDNY
Valido dal 20 a 12 ore il 21 a 12 ore UTC


201100Z 2012/2112 03004KT 2000 BR BKN003
TEMPO 2012/2016 8000 FEW010
TEMPO 2022/2108 0300 FG VV001
BECMG 2110/2112 03009KT 8000 FEW012
Nessun NOTAM noto per questo aeroporto.



MetMap, La meteo Aeronautica in un colpo d'occhio ! - Copyright ORBIFLY Dicembre 2007 - Disclaimer

ORBIFLY MET'MAP TEAM :

Programmazione e sviluppo : Alexandra Zaïnal
Concezione e sviluppo : Baudouin d'Aumeries
Co-Programmazione e sviluppo : Marc-Olivier Méhu
Supporto tecnico e logistico : Manuel Goepfert
Aiuto per la traduzione : Arnaldo La Scala

Contatto : metmap@orbifly.com




FONTI E CREDITI :

   NOAA